Search for airport 
image banner adimage banner adimage banner ad
image banner ad

PS39 - Downes

Located in Clymer, United States

ICAO - PS39, IATA -

Data provided by Airmate  

General information

Coordinates: N40°37'42" W78°57'37"
Elevation is 1590 feet MSL.
Magnetic variation is -09° East
View others Airports in Pennsylvania

Operational data

Special qualification required
Current time UTC:
Current local time:
METAR: KIDI 091615Z AUTO 10009KT 3SM BR FEW008 SCT012 OVC038 04/04 A2997 RMK A01
View NOTAMs / SUP AIP / TFR affecting this airport [VIEW]
Communications frequencies: [VIEW]

Runways:

RWY identifierQFULength (ft)Width (ft)SurfaceLDA (ft)
141200125GRASS
321200125GRASS

Airport contact information

Address: Clymer United States

Satellite view of PS39